Time;durP1;ratioP1;P1;durP2;ratioP2;P2;SDS_P1;SDS_P2;PMS_P1;PMS_P2;Temp;Humidity;BMP_temperature;BMP_pressure;BME280_temperature;BME280_humidity;BME280_pressure;Samples;Min_cycle;Max_cycle;Signal;HPM_P1;HPM_P2
2023/04/24 00:01:29;;;;;;;0.20;0.20;;;12.10;99.90;;;;;;5093876;28;20116;-77
2023/04/24 00:03:59;;;;;;;0.30;0.30;;;11.90;99.90;;;;;;5075463;28;20492;-77
2023/04/24 00:06:32;;;;;;;0.30;0.30;;;11.80;99.90;;;;;;5093071;28;20082;-77
2023/04/24 00:08:59;;;;;;;0.30;0.30;;;11.70;99.90;;;;;;5093903;28;20044;-77
2023/04/24 00:11:25;;;;;;;0.30;0.30;;;11.70;99.90;;;;;;5092496;28;20048;-77
2023/04/24 00:13:51;;;;;;;0.40;0.20;;;11.70;99.90;;;;;;5075353;28;20051;-77
2023/04/24 00:16:17;;;;;;;0.82;0.40;;;11.80;99.90;;;;;;5093453;28;20072;-77
2023/04/24 00:18:42;;;;;;;0.30;0.30;;;11.70;99.90;;;;;;5092431;28;20122;-77
2023/04/24 00:21:08;;;;;;;0.30;0.30;;;11.70;99.90;;;;;;5092159;28;20044;-77
2023/04/24 00:23:33;;;;;;;0.25;0.25;;;11.70;99.90;;;;;;5093647;28;20044;-77
2023/04/24 00:25:59;;;;;;;0.30;0.30;;;11.70;99.90;;;;;;5075525;28;20055;-77
2023/04/24 00:28:25;;;;;;;0.30;0.30;;;11.70;99.90;;;;;;5093677;28;20028;-77
2023/04/24 00:30:50;;;;;;;0.30;0.30;;;11.70;99.90;;;;;;5092012;28;20129;-77
2023/04/24 00:33:16;;;;;;;0.32;0.32;;;11.70;99.90;;;;;;5093607;28;20126;-77
2023/04/24 00:35:42;;;;;;;0.40;0.40;;;11.70;99.90;;;;;;5093658;28;20047;-77
2023/04/24 00:38:07;;;;;;;0.40;0.40;;;11.50;99.90;;;;;;5075563;28;20036;-77
2023/04/24 00:40:33;;;;;;;0.40;0.40;;;11.60;99.90;;;;;;5093158;28;20055;-77
2023/04/24 00:42:59;;;;;;;0.38;0.38;;;11.60;99.90;;;;;;5092001;28;20055;-78
2023/04/24 00:45:24;;;;;;;0.40;0.40;;;11.60;99.90;;;;;;5093484;28;20036;-77
2023/04/24 00:47:52;;;;;;;0.40;0.40;;;11.40;99.90;;;;;;5093184;28;20040;-77
2023/04/24 00:50:19;;;;;;;0.40;0.40;;;11.50;99.90;;;;;;5125975;28;20036;-77
2023/04/24 00:52:44;;;;;;;0.50;0.50;;;11.40;99.90;;;;;;5091760;28;20048;-77
2023/04/24 00:55:10;;;;;;;0.50;0.50;;;11.20;99.90;;;;;;5091817;28;20040;-77
2023/04/24 00:57:37;;;;;;;0.60;0.60;;;11.20;99.90;;;;;;5093342;28;20133;-77
2023/04/24 01:00:05;;;;;;;0.52;0.52;;;11.20;99.90;;;;;;5093265;28;20101;-77
2023/04/24 01:02:34;;;;;;;0.40;0.40;;;11.10;99.90;;;;;;5091738;28;20059;-77
2023/04/24 01:05:00;;;;;;;0.50;0.50;;;11.20;99.90;;;;;;5093242;28;20036;-78
2023/04/24 01:07:27;;;;;;;0.60;0.60;;;11.30;99.90;;;;;;5092763;28;20488;-77
2023/04/24 01:09:53;;;;;;;0.70;0.70;;;11.10;99.90;;;;;;5095869;28;20046;-77
2023/04/24 01:12:19;;;;;;;0.60;0.60;;;11.00;99.90;;;;;;5096757;28;20115;-77
2023/04/24 01:14:45;;;;;;;0.50;0.50;;;11.00;99.90;;;;;;5097093;28;20044;-77
2023/04/24 01:17:11;;;;;;;0.50;0.50;;;10.90;99.90;;;;;;5096970;28;20040;-77
2023/04/24 01:19:37;;;;;;;0.60;0.60;;;11.10;99.90;;;;;;5096613;28;20131;-77
2023/04/24 01:22:10;;;;;;;0.60;0.60;;;10.90;99.90;;;;;;5095396;28;20062;-77
2023/04/24 01:24:36;;;;;;;0.60;0.60;;;10.90;99.90;;;;;;5096935;28;20118;-77
2023/04/24 01:27:02;;;;;;;0.60;0.60;;;10.90;99.90;;;;;;5095527;28;20039;-77
2023/04/24 01:29:28;;;;;;;0.60;0.60;;;10.90;99.90;;;;;;5078587;28;20517;-77
2023/04/24 01:31:54;;;;;;;0.50;0.50;;;10.80;99.90;;;;;;5078561;28;20172;-77
2023/04/24 01:34:20;;;;;;;0.52;0.52;;;11.00;99.90;;;;;;5096330;28;20404;-77
2023/04/24 01:36:47;;;;;;;0.50;0.50;;;10.80;99.90;;;;;;5094996;28;20589;-77
2023/04/24 01:39:13;;;;;;;0.55;0.55;;;10.70;99.90;;;;;;5095072;28;20416;-76
2023/04/24 01:41:38;;;;;;;0.50;0.50;;;10.40;99.90;;;;;;5094878;28;20040;-77
2023/04/24 01:44:04;;;;;;;0.60;0.60;;;10.40;99.90;;;;;;5094970;28;20055;-77
2023/04/24 01:46:31;;;;;;;0.93;0.60;;;10.40;99.90;;;;;;5128953;27;20399;-77
2023/04/24 01:48:59;;;;;;;0.60;0.60;;;10.40;99.90;;;;;;5094877;28;20147;-77
2023/04/24 01:51:25;;;;;;;0.70;0.70;;;10.40;99.90;;;;;;5095068;28;20119;-77
2023/04/24 01:53:50;;;;;;;0.55;0.55;;;10.30;99.90;;;;;;5095040;28;20122;-77
2023/04/24 01:56:16;;;;;;;0.57;0.57;;;10.20;99.90;;;;;;5077784;28;20040;-76
2023/04/24 01:58:43;;;;;;;0.68;0.68;;;10.10;99.90;;;;;;5094695;28;20043;-76
2023/04/24 02:01:08;;;;;;;0.70;0.70;;;9.90;99.90;;;;;;5096030;28;20040;-76
2023/04/24 02:03:34;;;;;;;0.68;0.68;;;10.10;99.90;;;;;;5094793;28;20032;-76
2023/04/24 02:06:00;;;;;;;0.60;0.60;;;9.90;99.90;;;;;;5077673;28;20036;-76
2023/04/24 02:08:25;;;;;;;0.70;0.70;;;10.00;99.90;;;;;;5095759;28;20036;-76
2023/04/24 02:10:51;;;;;;;0.85;0.85;;;9.80;99.90;;;;;;5096009;28;20032;-77
2023/04/24 02:13:17;;;;;;;0.63;0.63;;;9.80;99.90;;;;;;5095659;28;20051;-77
2023/04/24 02:15:42;;;;;;;0.70;0.70;;;9.90;99.90;;;;;;5094291;28;20380;-77
2023/04/24 02:18:08;;;;;;;0.80;0.80;;;9.80;99.90;;;;;;5093989;28;20051;-77
2023/04/24 02:20:35;;;;;;;0.80;0.80;;;9.80;99.90;;;;;;5094806;28;20161;-76
2023/04/24 02:23:01;;;;;;;0.90;0.90;;;9.90;99.90;;;;;;5094136;28;20460;-76
2023/04/24 02:25:26;;;;;;;0.80;0.80;;;10.00;99.90;;;;;;5094141;28;20044;-76
2023/04/24 02:27:52;;;;;;;1.05;1.00;;;10.00;99.90;;;;;;5094347;28;20071;-76
2023/04/24 02:30:18;;;;;;;0.80;0.80;;;9.90;99.90;;;;;;5128216;27;20502;-76
2023/04/24 02:32:43;;;;;;;0.75;0.75;;;9.80;99.90;;;;;;5095816;28;20051;-76
2023/04/24 02:35:09;;;;;;;0.77;0.77;;;9.90;99.90;;;;;;5095486;28;20032;-76
2023/04/24 02:37:35;;;;;;;0.93;0.93;;;9.80;99.90;;;;;;5095513;28;20062;-76
2023/04/24 02:40:01;;;;;;;0.90;0.90;;;9.90;99.90;;;;;;5076937;28;20040;-76
2023/04/24 02:42:26;;;;;;;0.80;0.80;;;9.90;99.90;;;;;;5095252;28;20052;-76
2023/04/24 02:44:52;;;;;;;0.95;0.95;;;9.80;99.90;;;;;;5095264;28;20085;-76
2023/04/24 02:47:17;;;;;;;1.00;1.00;;;9.80;99.90;;;;;;5093724;28;20093;-76
2023/04/24 02:49:43;;;;;;;0.90;0.90;;;9.90;99.90;;;;;;5095224;28;20036;-77
2023/04/24 02:52:09;;;;;;;0.90;0.90;;;9.80;99.90;;;;;;5093605;28;20075;-76
2023/04/24 02:54:34;;;;;;;0.80;0.80;;;9.90;99.90;;;;;;5095082;28;20040;-76
2023/04/24 02:57:00;;;;;;;1.02;1.00;;;9.80;99.90;;;;;;5093702;28;20047;-76
2023/04/24 02:59:28;;;;;;;1.27;1.05;;;9.90;99.90;;;;;;5095062;28;20052;-77
2023/04/24 03:01:54;;;;;;;1.05;1.05;;;9.80;99.90;;;;;;5093323;28;20047;-76
2023/04/24 03:04:20;;;;;;;0.90;0.90;;;9.80;99.90;;;;;;5094904;28;20063;-76
2023/04/24 03:06:46;;;;;;;0.90;0.90;;;9.80;99.90;;;;;;5127413;27;20036;-76
2023/04/24 03:09:11;;;;;;;1.10;1.10;;;9.80;99.90;;;;;;5093547;28;20048;-77
2023/04/24 03:11:37;;;;;;;1.00;1.00;;;9.80;99.90;;;;;;5076396;28;20470;-76
2023/04/24 03:14:02;;;;;;;1.25;1.15;;;9.80;99.90;;;;;;5093460;28;20105;-77
2023/04/24 03:16:28;;;;;;;1.20;1.20;;;9.80;99.90;;;;;;5094802;28;20472;-76
2023/04/24 03:18:54;;;;;;;1.10;1.10;;;9.70;99.90;;;;;;5094731;28;20034;-77
2023/04/24 03:21:20;;;;;;;1.20;1.20;;;9.70;99.90;;;;;;5094322;28;20484;-76
2023/04/24 03:23:45;;;;;;;1.30;1.30;;;9.70;99.90;;;;;;5093052;28;20047;-76
2023/04/24 03:26:11;;;;;;;1.20;1.20;;;9.60;99.90;;;;;;5093720;28;20051;-76
2023/04/24 03:28:36;;;;;;;1.30;1.20;;;9.70;99.90;;;;;;5092883;28;20068;-76
2023/04/24 03:31:03;;;;;;;1.23;1.23;;;9.60;99.90;;;;;;5092653;28;20032;-77
2023/04/24 03:33:29;;;;;;;1.30;1.20;;;9.70;99.90;;;;;;5094392;28;20043;-76
2023/04/24 03:35:54;;;;;;;1.10;1.10;;;9.80;99.90;;;;;;5092668;28;20036;-75
2023/04/24 03:38:20;;;;;;;1.13;1.13;;;9.80;99.90;;;;;;5094278;28;20028;-76
2023/04/24 03:40:46;;;;;;;1.10;1.10;;;9.60;99.90;;;;;;5093891;28;20427;-76
2023/04/24 03:43:11;;;;;;;1.10;1.10;;;9.80;99.90;;;;;;5126686;27;20400;-76
2023/04/24 03:45:37;;;;;;;1.10;1.10;;;9.80;99.90;;;;;;5093827;28;20457;-77
2023/04/24 03:48:02;;;;;;;1.30;1.30;;;9.80;99.90;;;;;;5094111;28;20040;-76
2023/04/24 03:50:29;;;;;;;1.20;1.20;;;9.70;99.90;;;;;;5093346;28;20040;-76
2023/04/24 03:52:54;;;;;;;1.15;1.15;;;9.70;99.90;;;;;;5075645;28;20036;-76
2023/04/24 03:55:20;;;;;;;1.10;1.10;;;9.60;99.90;;;;;;5092412;28;20399;-76
2023/04/24 03:57:46;;;;;;;1.08;1.08;;;9.70;99.90;;;;;;5093687;28;20047;-76
2023/04/24 04:00:12;;;;;;;1.20;1.20;;;9.70;99.90;;;;;;5094021;28;20116;-76
2023/04/24 04:02:37;;;;;;;1.30;1.30;;;9.70;99.90;;;;;;5092429;28;20039;-76
2023/04/24 04:05:03;;;;;;;1.30;1.30;;;9.80;99.90;;;;;;5092357;28;20480;-76
2023/04/24 04:07:29;;;;;;;1.10;1.10;;;9.70;99.90;;;;;;5092442;28;20044;-77
2023/04/24 04:09:55;;;;;;;1.85;1.42;;;9.80;99.90;;;;;;5092705;28;20052;-77
2023/04/24 04:12:21;;;;;;;1.10;1.10;;;9.80;99.90;;;;;;5126743;27;20070;-77
2023/04/24 04:14:46;;;;;;;1.00;1.00;;;9.70;99.90;;;;;;5093877;28;20395;-77
2023/04/24 04:17:12;;;;;;;1.13;1.13;;;9.80;99.90;;;;;;5093855;28;20036;-77
2023/04/24 04:19:37;;;;;;;1.42;1.42;;;9.60;99.90;;;;;;5092568;28;20511;-77
2023/04/24 04:22:03;;;;;;;1.13;1.13;;;9.70;99.90;;;;;;5092278;28;20044;-77
2023/04/24 04:24:29;;;;;;;1.15;1.15;;;9.70;99.90;;;;;;5093735;28;20475;-76
2023/04/24 04:26:57;;;;;;;1.20;1.20;;;9.60;99.90;;;;;;5093676;28;20380;-76
2023/04/24 04:29:23;;;;;;;1.10;1.10;;;9.70;99.90;;;;;;5093635;28;20036;-76
2023/04/24 04:31:49;;;;;;;1.50;1.48;;;9.60;99.90;;;;;;5126190;28;20046;-77
2023/04/24 04:34:15;;;;;;;1.50;1.40;;;9.60;99.90;;;;;;5126196;28;20098;-77
2023/04/24 04:36:41;;;;;;;1.35;1.25;;;9.60;99.90;;;;;;5092144;28;20392;-77
2023/04/24 04:39:07;;;;;;;1.30;1.30;;;9.70;99.90;;;;;;5091814;28;20048;-76
2023/04/24 04:41:34;;;;;;;1.60;1.50;;;9.70;99.90;;;;;;5091855;28;20414;-76
2023/04/24 04:44:01;;;;;;;1.60;1.50;;;9.70;99.90;;;;;;5078676;28;20092;-76
2023/04/24 04:46:27;;;;;;;1.40;1.40;;;9.70;99.90;;;;;;5096137;28;20480;-76
2023/04/24 04:48:54;;;;;;;1.50;1.50;;;9.70;99.90;;;;;;5095975;28;20034;-76
2023/04/24 04:51:20;;;;;;;1.48;1.48;;;9.70;99.90;;;;;;5097511;28;20043;-76
2023/04/24 04:53:45;;;;;;;1.40;1.40;;;9.80;99.90;;;;;;5078950;28;20047;-76
2023/04/24 04:56:11;;;;;;;1.40;1.40;;;9.70;99.90;;;;;;5130179;27;20040;-76
2023/04/24 04:58:37;;;;;;;1.60;1.60;;;9.70;99.90;;;;;;5096047;28;20556;-76
2023/04/24 05:01:03;;;;;;;1.58;1.48;;;9.70;99.90;;;;;;5095645;28;20051;-76
2023/04/24 05:03:28;;;;;;;1.40;1.40;;;9.70;99.90;;;;;;5097277;28;20071;-76
2023/04/24 05:05:54;;;;;;;1.63;1.60;;;9.80;99.90;;;;;;5097963;28;20086;-76
2023/04/24 05:08:20;;;;;;;1.60;1.50;;;9.80;99.90;;;;;;5096813;28;20094;-76
2023/04/24 05:10:45;;;;;;;1.33;1.30;;;9.70;99.90;;;;;;5097095;28;20124;-76
2023/04/24 05:13:11;;;;;;;1.23;1.23;;;9.80;99.90;;;;;;5097013;28;20067;-76
2023/04/24 05:15:36;;;;;;;1.30;1.30;;;9.80;99.90;;;;;;5097091;28;20510;-76
2023/04/24 05:18:02;;;;;;;1.60;1.50;;;9.70;99.90;;;;;;5097161;28;20472;-77
2023/04/24 05:20:28;;;;;;;1.33;1.33;;;9.70;99.90;;;;;;5095412;28;20047;-76
2023/04/24 05:22:54;;;;;;;1.27;1.27;;;9.60;99.90;;;;;;5078426;28;20040;-76
2023/04/24 05:25:19;;;;;;;1.60;1.50;;;9.70;99.90;;;;;;5095582;28;20089;-76
2023/04/24 05:27:45;;;;;;;1.70;1.60;;;9.60;99.90;;;;;;5095272;28;20476;-76
2023/04/24 05:30:12;;;;;;;1.40;1.30;;;9.60;99.90;;;;;;5096857;28;20388;-76
2023/04/24 05:32:37;;;;;;;1.45;1.40;;;9.70;99.90;;;;;;5096780;28;20043;-76
2023/04/24 05:35:03;;;;;;;1.30;1.30;;;9.60;99.90;;;;;;5095188;28;20412;-76
2023/04/24 05:37:29;;;;;;;1.30;1.30;;;9.60;99.90;;;;;;5096606;28;20392;-76
2023/04/24 05:39:55;;;;;;;1.33;1.33;;;9.60;99.90;;;;;;5094740;28;20157;-76
2023/04/24 05:42:20;;;;;;;1.50;1.40;;;9.70;99.90;;;;;;5096395;28;20056;-76
2023/04/24 05:44:46;;;;;;;1.10;1.10;;;9.70;99.90;;;;;;5094851;28;20048;-76
2023/04/24 05:47:11;;;;;;;1.35;1.35;;;9.60;99.90;;;;;;5094976;28;20047;-76
2023/04/24 05:49:37;;;;;;;1.30;1.30;;;9.60;99.90;;;;;;5096311;28;20090;-76
2023/04/24 05:52:04;;;;;;;1.45;1.45;;;9.70;99.90;;;;;;5096256;28;20471;-76
2023/04/24 05:54:30;;;;;;;1.30;1.30;;;9.80;99.90;;;;;;5094686;28;20047;-76
2023/04/24 05:56:55;;;;;;;1.30;1.30;;;9.80;99.90;;;;;;5096223;28;20040;-76
2023/04/24 05:59:21;;;;;;;1.20;1.20;;;9.80;99.90;;;;;;5096119;28;20035;-76
2023/04/24 06:01:47;;;;;;;0.95;0.95;;;9.80;99.90;;;;;;5096001;28;20479;-76
2023/04/24 06:04:15;;;;;;;1.40;1.40;;;9.80;99.90;;;;;;5095769;28;20028;-76
2023/04/24 06:06:41;;;;;;;1.02;1.02;;;9.70;99.90;;;;;;5096084;28;20115;-76
2023/04/24 06:09:07;;;;;;;1.17;1.17;;;9.70;99.90;;;;;;5094483;28;20468;-76
2023/04/24 06:11:33;;;;;;;1.10;1.10;;;9.80;99.90;;;;;;5094573;28;20075;-76
2023/04/24 06:13:58;;;;;;;1.10;1.10;;;9.90;99.90;;;;;;5096454;28;20119;-76
2023/04/24 06:16:24;;;;;;;1.40;1.30;;;9.80;99.90;;;;;;5094669;28;20480;-74
2023/04/24 06:18:50;;;;;;;1.10;1.10;;;9.80;99.90;;;;;;5094268;28;20047;-79
2023/04/24 06:21:16;;;;;;;1.20;1.20;;;9.80;99.90;;;;;;5077238;28;20450;-80
2023/04/24 06:23:42;;;;;;;1.20;1.20;;;9.70;99.90;;;;;;5077327;28;20123;-79
2023/04/24 06:26:07;;;;;;;1.10;1.10;;;9.70;99.90;;;;;;5095798;28;20136;-85
2023/04/24 06:28:33;;;;;;;1.13;1.13;;;9.80;99.90;;;;;;5094232;28;20349;-80
2023/04/24 06:30:59;;;;;;;1.10;1.10;;;9.70;99.90;;;;;;5094019;28;20036;-81
2023/04/24 06:33:24;;;;;;;0.88;0.88;;;9.70;99.90;;;;;;5094272;28;20048;-81
2023/04/24 06:35:50;;;;;;;1.00;1.00;;;9.70;99.90;;;;;;5077205;28;20545;-80
2023/04/24 06:38:16;;;;;;;1.00;1.00;;;9.70;99.90;;;;;;5094437;28;20070;-79
2023/04/24 06:40:41;;;;;;;1.10;1.10;;;9.90;99.90;;;;;;5093819;28;20056;-84
2023/04/24 06:43:07;;;;;;;1.08;1.08;;;9.80;99.90;;;;;;5094099;28;20043;-81
2023/04/24 06:45:32;;;;;;;1.00;1.00;;;9.80;99.90;;;;;;5093795;28;20141;-83
2023/04/24 06:47:58;;;;;;;1.00;1.00;;;9.80;99.90;;;;;;5095015;28;20044;-81
2023/04/24 06:50:24;;;;;;;1.10;1.10;;;9.70;99.90;;;;;;5076870;28;20043;-84
2023/04/24 06:52:49;;;;;;;1.10;1.10;;;9.70;99.90;;;;;;5077021;28;20036;-73
2023/04/24 06:55:16;;;;;;;1.30;1.27;;;9.70;99.90;;;;;;5127812;27;20043;-84
2023/04/24 06:57:42;;;;;;;1.02;1.02;;;9.90;99.90;;;;;;5077066;28;20392;-83
2023/04/24 07:00:09;;;;;;;1.10;1.10;;;9.80;99.90;;;;;;5076790;28;20039;-83
2023/04/24 07:02:35;;;;;;;1.55;1.20;;;9.90;99.90;;;;;;5093567;28;20047;-83
2023/04/24 07:05:01;;;;;;;1.20;1.20;;;9.70;99.90;;;;;;5093239;28;20040;-83
2023/04/24 07:07:27;;;;;;;1.40;1.30;;;9.80;99.90;;;;;;5095069;28;20115;-75
2023/04/24 07:09:53;;;;;;;1.38;1.38;;;9.70;99.90;;;;;;5095000;28;20387;-80
2023/04/24 07:12:21;;;;;;;1.80;1.70;;;9.80;99.90;;;;;;5094678;28;20086;-83
2023/04/24 07:14:47;;;;;;;1.00;1.00;;;9.80;99.90;;;;;;5127510;27;20052;-76
2023/04/24 07:17:13;;;;;;;1.60;1.50;;;9.60;99.90;;;;;;5094902;28;20036;-78
2023/04/24 07:19:39;;;;;;;1.50;1.40;;;9.70;99.90;;;;;;5093610;28;20529;-69
2023/04/24 07:22:04;;;;;;;0.88;0.88;;;9.90;99.90;;;;;;5095230;28;20472;-82
2023/04/24 07:24:32;;;;;;;1.00;1.00;;;9.90;99.90;;;;;;5094759;28;20101;-82
2023/04/24 07:26:58;;;;;;;1.00;1.00;;;10.00;99.90;;;;;;5076195;28;20479;-82
2023/04/24 07:29:23;;;;;;;1.00;1.00;;;10.00;99.90;;;;;;5094677;28;20040;-82
2023/04/24 07:31:49;;;;;;;1.40;1.30;;;10.20;99.90;;;;;;5076249;28;20040;-81
2023/04/24 07:34:15;;;;;;;1.20;1.20;;;10.30;99.90;;;;;;5093044;28;20444;-81
2023/04/24 07:36:41;;;;;;;2.42;1.50;;;10.20;99.90;;;;;;5092966;28;20040;-81
2023/04/24 07:39:08;;;;;;;1.30;1.20;;;10.40;99.90;;;;;;5092773;28;20052;-86
2023/04/24 07:41:35;;;;;;;1.55;1.45;;;10.30;99.90;;;;;;5092969;28;20040;-85
2023/04/24 07:44:01;;;;;;;1.45;1.35;;;10.40;99.90;;;;;;5093329;28;20028;-86
2023/04/24 07:46:29;;;;;;;1.20;1.20;;;10.60;99.90;;;;;;5094694;28;20040;-83
2023/04/24 07:48:55;;;;;;;1.63;1.50;;;10.50;99.90;;;;;;5094416;28;20166;-84
2023/04/24 07:51:21;;;;;;;1.67;1.58;;;10.50;99.90;;;;;;5093474;28;20083;-83
2023/04/24 07:53:46;;;;;;;1.75;1.65;;;10.40;99.90;;;;;;5076465;28;20051;-79
2023/04/24 07:56:12;;;;;;;1.48;1.38;;;10.60;99.90;;;;;;5076044;28;20117;-88
2023/04/24 07:58:38;;;;;;;1.00;0.90;;;10.50;99.90;;;;;;5093371;28;20062;-87
2023/04/24 08:01:03;;;;;;;0.60;0.60;;;10.50;99.90;;;;;;5093157;28;20036;-87
2023/04/24 08:03:29;;;;;;;0.80;0.80;;;10.40;99.90;;;;;;5093277;28;20476;-87
2023/04/24 08:05:55;;;;;;;1.35;1.00;;;10.30;99.90;;;;;;5076691;28;20085;-88
2023/04/24 08:08:22;;;;;;;0.88;0.85;;;10.30;99.90;;;;;;5127813;27;20040;-88
2023/04/24 08:10:49;;;;;;;1.20;0.82;;;10.30;99.90;;;;;;5094746;28;20040;-88
2023/04/24 08:13:14;;;;;;;1.10;1.00;;;10.20;99.90;;;;;;5093511;28;20054;-87
2023/04/24 08:15:40;;;;;;;2.45;1.00;;;10.40;99.90;;;;;;5093122;28;20126;-88
2023/04/24 08:18:06;;;;;;;3.00;1.15;;;10.40;99.90;;;;;;5093003;28;20127;-88
2023/04/24 08:20:32;;;;;;;2.80;1.38;;;10.30;99.90;;;;;;5092999;28;20115;-88
2023/04/24 08:22:57;;;;;;;1.30;1.20;;;10.20;99.90;;;;;;5093397;28;20538;-88
2023/04/24 08:25:24;;;;;;;1.52;1.20;;;10.20;99.90;;;;;;5093405;28;20071;-88
2023/04/24 08:27:50;;;;;;;1.40;1.10;;;10.10;99.90;;;;;;5093214;28;20078;-87
2023/04/24 08:30:16;;;;;;;1.08;0.98;;;10.20;99.90;;;;;;5076203;28;20124;-88
2023/04/24 08:32:42;;;;;;;1.20;0.90;;;10.10;99.90;;;;;;5094072;28;20434;-88
2023/04/24 08:35:09;;;;;;;2.33;1.00;;;10.20;99.90;;;;;;5076113;28;20044;-88
2023/04/24 08:37:34;;;;;;;2.60;1.05;;;10.10;99.90;;;;;;5075990;28;20181;-87
2023/04/24 08:40:05;;;;;;;2.65;1.50;;;10.00;99.90;;;;;;5075870;28;20501;-87
2023/04/24 08:42:34;;;;;;;2.15;1.80;;;9.90;99.90;;;;;;5092709;28;20048;-86
2023/04/24 08:45:00;;;;;;;3.20;2.40;;;10.00;99.90;;;;;;5093578;28;20369;-86
2023/04/24 08:47:27;;;;;;;3.60;2.70;;;9.90;99.90;;;;;;5092609;28;20069;-87
2023/04/24 08:49:53;;;;;;;3.78;3.47;;;9.60;99.90;;;;;;5094000;28;20082;-86
2023/04/24 08:52:21;;;;;;;3.58;3.28;;;9.60;99.90;;;;;;5092893;28;20476;-85
2023/04/24 08:54:47;;;;;;;4.32;3.90;;;9.70;99.90;;;;;;5075548;28;20036;-87
2023/04/24 08:57:14;;;;;;;4.93;4.20;;;9.60;99.90;;;;;;5092863;28;20036;-87
2023/04/24 08:59:40;;;;;;;4.88;4.38;;;9.60;99.90;;;;;;5075681;28;20040;-87
2023/04/24 09:02:10;;;;;;;6.03;5.10;;;9.60;99.90;;;;;;5075787;28;20492;-87
2023/04/24 09:04:37;;;;;;;6.40;5.28;;;9.50;99.90;;;;;;5076701;28;20071;-86
2023/04/24 09:07:05;;;;;;;6.05;5.47;;;9.60;99.90;;;;;;5094073;28;20036;-87
2023/04/24 09:09:32;;;;;;;6.43;5.88;;;9.50;99.90;;;;;;5092263;28;20036;-86
2023/04/24 09:11:58;;;;;;;7.68;6.00;;;9.60;99.90;;;;;;5093704;28;20119;-86
2023/04/24 09:14:24;;;;;;;6.55;5.95;;;9.60;99.90;;;;;;5093524;28;20170;-86
2023/04/24 09:16:50;;;;;;;7.40;5.80;;;9.40;99.90;;;;;;5092097;28;20052;-86
2023/04/24 09:19:16;;;;;;;6.85;6.18;;;9.40;99.90;;;;;;5092015;28;20047;-86
2023/04/24 09:21:46;;;;;;;6.75;6.15;;;9.40;99.90;;;;;;5092169;28;20040;-86
2023/04/24 09:24:22;;;;;;;6.97;6.28;;;9.30;99.90;;;;;;5075053;28;20040;-86
2023/04/24 09:26:48;;;;;;;9.48;6.60;;;9.30;99.90;;;;;;5092176;28;20476;-86
2023/04/24 09:29:19;;;;;;;7.95;7.22;;;9.30;99.90;;;;;;5077396;28;20135;-85
2023/04/24 09:31:45;;;;;;;7.22;6.15;;;9.40;99.90;;;;;;5095715;28;20040;-85
2023/04/24 09:34:12;;;;;;;8.10;6.47;;;9.30;99.90;;;;;;5095569;28;20069;-84
2023/04/24 09:36:41;;;;;;;8.43;6.07;;;9.20;99.90;;;;;;5078433;28;20038;-85
2023/04/24 09:39:10;;;;;;;8.35;6.78;;;9.20;99.90;;;;;;5078012;28;20071;-84
2023/04/24 09:41:47;;;;;;;7.13;6.40;;;9.10;99.90;;;;;;5078158;28;20509;-85
2023/04/24 09:44:20;;;;;;;7.72;6.60;;;9.00;99.90;;;;;;5095451;28;20039;-85
2023/04/24 09:46:59;;;;;;;7.63;6.93;;;9.00;99.90;;;;;;5094235;28;20476;-85
2023/04/24 09:49:30;;;;;;;7.68;6.88;;;9.10;99.90;;;;;;5078077;28;20032;-84
2023/04/24 09:52:06;;;;;;;7.30;6.70;;;9.00;99.90;;;;;;5096078;28;20092;-84
2023/04/24 09:54:31;;;;;;;6.88;6.18;;;9.10;99.90;;;;;;5094623;28;20080;-82
2023/04/24 09:56:57;;;;;;;6.60;6.05;;;9.10;99.90;;;;;;5095248;28;20122;-85
2023/04/24 09:59:23;;;;;;;6.60;6.00;;;9.00;99.90;;;;;;5078071;28;20044;-84
2023/04/24 10:01:50;;;;;;;7.07;6.38;;;9.10;99.90;;;;;;5094915;28;20037;-84
2023/04/24 10:04:24;;;;;;;7.18;6.50;;;9.10;99.90;;;;;;5077735;28;20040;-85
2023/04/24 10:06:51;;;;;;;6.05;5.50;;;9.20;99.90;;;;;;5094699;28;20067;-83
2023/04/24 10:09:18;;;;;;;5.90;5.40;;;9.10;99.90;;;;;;5096080;28;20046;-84
2023/04/24 10:11:49;;;;;;;6.22;5.60;;;9.10;99.90;;;;;;5094459;28;20492;-79
2023/04/24 10:14:17;;;;;;;5.20;4.75;;;9.10;99.90;;;;;;5094537;28;20044;-81
2023/04/24 10:16:44;;;;;;;6.25;5.65;;;9.10;99.90;;;;;;5095941;28;20094;-77
2023/04/24 10:19:13;;;;;;;10.60;6.38;;;9.00;99.90;;;;;;5077468;28;20069;-78
2023/04/24 10:21:42;;;;;;;6.22;5.65;;;9.00;99.90;;;;;;5077388;28;20036;-78
2023/04/24 10:24:08;;;;;;;5.97;5.47;;;9.10;99.90;;;;;;5077366;28;20119;-77
2023/04/24 10:26:35;;;;;;;6.40;5.80;;;9.10;99.90;;;;;;5094172;28;20036;-77
2023/04/24 10:29:01;;;;;;;5.75;5.22;;;9.10;99.90;;;;;;5094172;28;20048;-78
2023/04/24 10:31:30;;;;;;;6.35;5.65;;;9.00;99.90;;;;;;5095593;28;20044;-78
2023/04/24 10:33:58;;;;;;;8.20;6.53;;;9.10;99.90;;;;;;5077342;28;20065;-82
2023/04/24 10:36:26;;;;;;;6.25;5.75;;;9.00;99.90;;;;;;5077116;28;20781;-83
2023/04/24 10:38:54;;;;;;;6.40;5.60;;;9.00;99.90;;;;;;5077215;28;20481;-80
2023/04/24 10:41:23;;;;;;;6.70;6.00;;;8.90;99.90;;;;;;5075931;28;20097;-80
2023/04/24 10:44:03;;;;;;;5.55;4.88;;;9.10;99.90;;;;;;5094111;28;20114;-81
2023/04/24 10:46:30;;;;;;;5.53;4.75;;;9.20;99.90;;;;;;5095381;28;20043;-79
2023/04/24 10:48:58;;;;;;;5.45;4.50;;;9.10;99.90;;;;;;5094807;28;20124;-78
2023/04/24 10:51:24;;;;;;;4.43;3.58;;;9.30;99.90;;;;;;5095140;28;20165;-80
2023/04/24 10:53:53;;;;;;;4.43;3.50;;;9.20;99.90;;;;;;5076690;28;20484;-79
2023/04/24 10:56:18;;;;;;;8.32;4.10;;;9.40;99.90;;;;;;5093631;28;20504;-79
2023/04/24 10:58:49;;;;;;;3.78;2.70;;;9.50;99.90;;;;;;5076644;28;20039;-80
2023/04/24 11:01:27;;;;;;;3.80;2.35;;;9.40;99.90;;;;;;5076589;28;20032;-81
2023/04/24 11:03:58;;;;;;;3.75;2.33;;;9.50;99.90;;;;;;5093493;28;20078;-82
2023/04/24 11:06:37;;;;;;;5.40;2.83;;;9.50;99.90;;;;;;5093481;28;20612;-81
2023/04/24 11:09:05;;;;;;;4.43;2.10;;;9.50;99.90;;;;;;5094962;28;20210;-81
2023/04/24 11:11:31;;;;;;;5.00;2.30;;;9.40;99.90;;;;;;5093359;28;20497;-82
2023/04/24 11:13:56;;;;;;;4.20;2.78;;;9.40;99.90;;;;;;5076375;28;20044;-82
2023/04/24 11:16:34;;;;;;;3.63;2.10;;;9.40;99.90;;;;;;5076315;28;20096;-81
2023/04/24 11:19:15;;;;;;;2.80;1.85;;;9.50;99.90;;;;;;5093381;28;20044;-85
2023/04/24 11:21:44;;;;;;;;;;;9.50;99.90;;;;;;5094741;28;20036;-82
2023/04/24 11:24:31;;;;;;;3.22;1.88;;;9.60;99.90;;;;;;5093347;28;20393;-81
2023/04/24 11:27:06;;;;;;;3.92;2.20;;;9.70;99.90;;;;;;5093420;28;20052;-81
2023/04/24 11:29:41;;;;;;;3.47;1.75;;;9.80;99.90;;;;;;5093286;28;20043;-84
2023/04/24 11:32:27;;;;;;;3.50;1.50;;;9.90;99.90;;;;;;5076229;28;20134;-81
2023/04/24 11:34:56;;;;;;;2.30;1.77;;;10.00;99.90;;;;;;5093370;28;20124;-83
2023/04/24 11:37:24;;;;;;;2.97;1.73;;;10.10;99.90;;;;;;5076216;28;20048;-84
2023/04/24 11:39:54;;;;;;;2.08;1.50;;;10.10;99.90;;;;;;5092692;28;20059;-83
2023/04/24 11:42:21;;;;;;;3.17;1.70;;;10.00;99.90;;;;;;5093153;28;20051;-83
2023/04/24 11:44:47;;;;;;;2.75;1.20;;;10.00;99.90;;;;;;5092714;28;20044;-83
2023/04/24 11:47:13;;;;;;;3.53;1.50;;;9.90;99.90;;;;;;5093918;28;20554;-83
2023/04/24 11:49:39;;;;;;;2.03;1.30;;;9.70;99.90;;;;;;5075768;28;20032;-84
2023/04/24 11:52:06;;;;;;;2.40;1.40;;;9.70;99.90;;;;;;5093893;28;20036;-83
2023/04/24 11:54:31;;;;;;;2.50;1.50;;;9.70;99.90;;;;;;5094028;28;20040;-84
2023/04/24 11:56:57;;;;;;;3.95;1.80;;;9.70;99.90;;;;;;5092545;28;20051;-82
2023/04/24 11:59:23;;;;;;;4.30;1.75;;;9.80;99.90;;;;;;5093666;28;20040;-82
2023/04/24 12:01:49;;;;;;;3.35;1.63;;;9.80;99.90;;;;;;5092277;28;20119;-82
2023/04/24 12:04:17;;;;;;;3.35;1.83;;;9.80;99.90;;;;;;5092351;28;20044;-81
2023/04/24 12:07:02;;;;;;;3.65;1.50;;;9.90;99.90;;;;;;5075438;28;20036;-81
2023/04/24 12:09:28;;;;;;;2.75;1.38;;;9.80;99.90;;;;;;5093892;28;20040;-81
2023/04/24 12:11:57;;;;;;;2.35;1.10;;;9.90;99.90;;;;;;5092220;28;20055;-81
2023/04/24 12:14:23;;;;;;;2.23;1.20;;;9.90;99.90;;;;;;5092590;28;20040;-84
2023/04/24 12:16:50;;;;;;;2.95;1.25;;;9.80;99.90;;;;;;5075488;28;20366;-82
2023/04/24 12:19:21;;;;;;;1.60;1.15;;;9.70;99.90;;;;;;5092216;28;20032;-81
2023/04/24 12:22:03;;;;;;;1.88;1.20;;;9.70;99.90;;;;;;5093438;28;20468;-82
2023/04/24 12:24:30;;;;;;;3.60;1.63;;;9.60;99.90;;;;;;5091259;28;20047;-81
2023/04/24 12:26:56;;;;;;;2.67;1.10;;;9.50;99.90;;;;;;5075611;28;20388;-81
2023/04/24 12:29:22;;;;;;;1.85;1.15;;;9.60;99.90;;;;;;5092441;28;20032;-80
2023/04/24 12:31:49;;;;;;;2.17;1.00;;;9.50;99.90;;;;;;5075650;28;20048;-80
2023/04/24 12:34:23;;;;;;;1.90;1.05;;;9.50;99.90;;;;;;5092449;28;20122;-81
2023/04/24 12:36:49;;;;;;;3.00;1.27;;;9.40;99.90;;;;;;5091978;28;20093;-81
2023/04/24 12:39:19;;;;;;;1.60;1.00;;;9.50;99.90;;;;;;5075000;28;20044;-81
2023/04/24 12:41:59;;;;;;;1.80;1.23;;;9.50;99.90;;;;;;5075323;28;20434;-82
2023/04/24 12:44:34;;;;;;;1.88;1.02;;;9.50;99.90;;;;;;5075167;28;20036;-81
2023/04/24 12:47:03;;;;;;;1.95;0.90;;;9.60;99.90;;;;;;5075327;28;20393;-82
2023/04/24 12:49:32;;;;;;;2.25;1.00;;;9.60;99.90;;;;;;5075836;28;20040;-82
2023/04/24 12:51:58;;;;;;;2.03;0.93;;;9.70;99.90;;;;;;5075144;28;20460;-81
2023/04/24 12:54:23;;;;;;;1.73;1.02;;;9.70;99.90;;;;;;5093409;28;20127;-81